OMDM/NHD METAR and TAF weather

Enter ICAO airport designator
Station Type Date Time Source
OMDM METAR 2019/04/22 17:30 UTC NOAA

OMDM 221730Z AUTO 08009KT 9999 NCD 33/10 Q1007 A2974


Station Type Date Time Source
OMDM Decoded METAR 2019/04/22 17:30 UTC NOAA

Station name not available
Apr 22, 2019 - 01:30 PM EDT / 2019.04.22 1730 UTC
Wind: from the E (080 degrees) at 10 MPH (9 KT):0
Visibility: greater than 7 mile(s):0
Temperature: 91 F (33 C)
Dew Point: 50 F (10 C)
Relative Humidity: 24%
Pressure (altimeter): 29.74 in. Hg (1007 hPa)
ob: OMDM 221730Z AUTO 08009KT 9999 NCD 33/10 Q1007 A2974
cycle: 17

Station Type Date Time Source
OMDM TAF 2015/04/11 18:25 UTC NOAA

TAF OMDM 111725Z 1118/1224 06005KT 7000 NSC
BECMG 1203/1205 19013KT PROB30
TEMPO 1206/1212 21008G18KT 4000 DU
BECMG 1213/1215 35010KT
BECMG 1218/1220 12009KT

Example: see airport list